Time;durP1;ratioP1;P1;durP2;ratioP2;P2;SDS_P1;SDS_P2;PMS_P1;PMS_P2;Temp;Humidity;BMP_temperature;BMP_pressure;BME280_temperature;BME280_humidity;BME280_pressure;Samples;Min_cycle;Max_cycle;Signal;HPM_P1;HPM_P2
2022/06/11 00:00:24;;;;;;;4.32;2.30;;;21.60;99.90;;;;;;5064187;28;20588;-53
2022/06/11 00:02:54;;;;;;;3.80;2.08;;;21.60;99.90;;;;;;5063635;28;20192;-53
2022/06/11 00:05:21;;;;;;;4.20;2.40;;;21.60;99.90;;;;;;5044611;28;20266;-53
2022/06/11 00:07:50;;;;;;;6.97;2.10;;;21.50;99.90;;;;;;5055084;28;20645;-53
2022/06/11 00:10:18;;;;;;;5.78;2.25;;;21.50;99.90;;;;;;5049687;28;20254;-53
2022/06/11 00:12:45;;;;;;;5.63;2.28;;;21.50;99.90;;;;;;5051168;28;20204;-53
2022/06/11 00:15:13;;;;;;;4.93;1.95;;;21.50;99.90;;;;;;5050757;28;20940;-37
2022/06/11 00:17:43;;;;;;;3.15;1.92;;;21.50;99.90;;;;;;5051136;28;20228;-37
2022/06/11 00:20:10;;;;;;;4.13;2.20;;;21.50;99.90;;;;;;5046490;28;20224;-37
2022/06/11 00:22:42;;;;;;;6.47;2.35;;;21.40;99.90;;;;;;5031068;28;20304;-54
2022/06/11 00:25:10;;;;;;;5.10;2.17;;;21.40;99.90;;;;;;5047735;28;20679;-54
2022/06/11 00:27:38;;;;;;;5.05;2.33;;;21.40;99.90;;;;;;5049396;28;20390;-53
2022/06/11 00:30:07;;;;;;;5.35;2.50;;;21.40;99.90;;;;;;5050356;28;20700;-53
2022/06/11 00:32:34;;;;;;;3.97;2.63;;;21.50;99.90;;;;;;5033266;28;20230;-53
2022/06/11 00:35:05;;;;;;;4.63;2.40;;;21.50;99.90;;;;;;5064075;28;20685;-53
2022/06/11 00:37:35;;;;;;;5.55;2.58;;;21.50;99.90;;;;;;5055076;28;20213;-54
2022/06/11 00:40:04;;;;;;;4.32;2.30;;;21.40;99.90;;;;;;5029407;28;20213;-53
2022/06/11 00:42:34;;;;;;;8.57;2.67;;;21.40;99.90;;;;;;5050510;28;20207;-53
2022/06/11 00:45:23;;;;;;;3.55;2.05;;;21.40;99.90;;;;;;5049128;28;20274;-53
2022/06/11 00:48:06;;;;;;;4.72;2.30;;;21.40;99.90;;;;;;5048429;28;20204;-53
2022/06/11 00:50:59;;;;;;;5.88;2.40;;;21.30;99.90;;;;;;5050160;28;20762;-53
2022/06/11 00:53:39;;;;;;;3.65;2.10;;;21.30;99.90;;;;;;5050614;28;20227;-51
2022/06/11 00:56:11;;;;;;;5.50;2.85;;;21.30;99.90;;;;;;5065503;28;20247;-53
2022/06/11 00:58:45;;;;;;;3.88;2.17;;;21.20;99.90;;;;;;5046870;28;20729;-54
2022/06/11 01:01:17;;;;;;;5.15;2.42;;;21.20;99.90;;;;;;5049935;28;20610;-52
2022/06/11 01:03:47;;;;;;;4.85;2.35;;;21.10;99.90;;;;;;5046490;28;20232;-54
2022/06/11 01:06:17;;;;;;;4.45;2.40;;;21.10;99.90;;;;;;5042564;28;20220;-53
2022/06/11 01:09:03;;;;;;;6.28;2.28;;;21.10;99.90;;;;;;5050196;28;20808;-53
2022/06/11 01:11:48;;;;;;;6.05;2.45;;;21.10;99.90;;;;;;5042681;28;20311;-54
2022/06/11 01:14:50;;;;;;;6.05;2.53;;;21.10;99.90;;;;;;5029568;28;20282;-53
2022/06/11 01:17:19;;;;;;;7.93;2.72;;;21.00;99.90;;;;;;5029918;28;20290;-52
2022/06/11 01:20:15;;;;;;;4.90;2.42;;;21.00;99.90;;;;;;5028375;28;20208;-53
2022/06/11 01:22:57;;;;;;;3.45;2.10;;;21.00;99.90;;;;;;5029930;28;20205;-54
2022/06/11 01:25:43;;;;;;;4.43;2.42;;;20.90;99.90;;;;;;5028773;28;20212;-53
2022/06/11 01:28:49;;;;;;;4.05;2.28;;;21.00;99.90;;;;;;5026365;28;20201;-54
2022/06/11 01:31:33;;;;;;;2.95;2.28;;;20.90;99.90;;;;;;5028823;28;20654;-52
2022/06/11 01:34:06;;;;;;;4.10;2.10;;;21.00;99.90;;;;;;5036477;28;20233;-53
2022/06/11 01:36:48;;;;;;;4.30;2.00;;;21.00;99.90;;;;;;5048845;28;20553;-52
2022/06/11 01:39:22;;;;;;;6.30;2.00;;;20.90;99.90;;;;;;5049468;28;20693;-52
2022/06/11 01:41:58;;;;;;;5.93;2.40;;;20.90;99.90;;;;;;5029816;28;20236;-53
2022/06/11 01:44:34;;;;;;;6.28;2.35;;;21.00;99.90;;;;;;5028627;28;20219;-51
2022/06/11 01:47:03;;;;;;;3.50;1.98;;;21.00;99.90;;;;;;5029444;28;20236;-52
2022/06/11 01:49:33;;;;;;;3.65;2.30;;;20.90;99.90;;;;;;5028705;28;20213;-52
2022/06/11 01:52:28;;;;;;;4.63;1.90;;;21.00;99.90;;;;;;5029300;28;20259;-52
2022/06/11 01:55:29;;;;;;;5.57;2.63;;;21.00;99.90;;;;;;5029141;28;20220;-53
2022/06/11 01:58:30;;;;;;;5.50;2.40;;;21.00;99.90;;;;;;5029302;28;20250;-52
2022/06/11 02:01:35;;;;;;;3.40;2.15;;;21.00;99.90;;;;;;5017740;28;20204;-52
2022/06/11 02:04:22;;;;;;;3.00;2.10;;;21.00;99.90;;;;;;5029120;28;20201;-51
2022/06/11 02:07:07;;;;;;;4.00;2.20;;;20.90;99.90;;;;;;5028843;28;20713;-52
2022/06/11 02:10:25;;;;;;;2.97;2.20;;;21.00;99.90;;;;;;5025034;28;20220;-36
2022/06/11 02:13:20;;;;;;;3.35;2.20;;;21.00;99.90;;;;;;5018374;28;20352;-36
2022/06/11 02:16:16;;;;;;;3.33;2.40;;;20.90;99.90;;;;;;5008694;28;20599;-36
2022/06/11 02:18:47;;;;;;;3.55;2.40;;;21.00;99.90;;;;;;5009692;28;20252;-36
2022/06/11 02:21:22;;;;;;;4.15;2.22;;;20.90;99.90;;;;;;5027927;28;20660;-37
2022/06/11 02:24:00;;;;;;;3.40;2.03;;;20.90;99.90;;;;;;5028302;28;20208;-37
2022/06/11 02:26:37;;;;;;;4.22;2.28;;;20.90;99.90;;;;;;5028243;28;20213;-36
2022/06/11 02:29:25;;;;;;;4.35;2.50;;;20.90;99.90;;;;;;5027871;28;20212;-36
2022/06/11 02:31:58;;;;;;;3.28;2.00;;;20.90;99.90;;;;;;5028260;28;20246;-36
2022/06/11 02:34:26;;;;;;;4.78;2.40;;;20.90;99.90;;;;;;5026752;28;20667;-36
2022/06/11 02:37:05;;;;;;;3.83;2.40;;;20.90;99.90;;;;;;5019351;28;20282;-36
2022/06/11 02:39:37;;;;;;;3.13;2.35;;;20.90;99.90;;;;;;5028332;28;20216;-36
2022/06/11 02:42:06;;;;;;;3.25;2.28;;;20.90;99.90;;;;;;5028351;28;20201;-36
2022/06/11 02:44:36;;;;;;;4.72;2.28;;;20.90;99.90;;;;;;5027610;28;20205;-36
2022/06/11 02:47:06;;;;;;;4.70;2.50;;;20.90;99.90;;;;;;5027288;28;20270;-36
2022/06/11 02:49:36;;;;;;;3.05;2.10;;;20.80;99.90;;;;;;5028223;28;20325;-36
2022/06/11 02:52:10;;;;;;;4.38;2.20;;;20.80;99.90;;;;;;5028918;28;20205;-36
2022/06/11 02:54:38;;;;;;;4.30;2.20;;;20.80;99.90;;;;;;5027931;28;20691;-36
2022/06/11 02:57:07;;;;;;;5.43;2.75;;;20.80;99.90;;;;;;5028084;28;20233;-36
2022/06/11 02:59:38;;;;;;;4.38;2.30;;;20.80;99.90;;;;;;5028029;28;20231;-36
2022/06/11 03:02:09;;;;;;;6.50;2.30;;;20.80;99.90;;;;;;5021859;28;20206;-36
2022/06/11 03:04:38;;;;;;;2.63;2.10;;;20.90;99.90;;;;;;5008154;28;20213;-36
2022/06/11 03:07:08;;;;;;;3.35;2.00;;;20.80;99.90;;;;;;5007444;28;20660;-37
2022/06/11 03:09:39;;;;;;;3.40;2.25;;;20.80;99.90;;;;;;5007173;28;20208;-36
2022/06/11 03:12:09;;;;;;;4.20;2.28;;;20.80;99.90;;;;;;5028125;28;20304;-36
2022/06/11 03:14:42;;;;;;;4.03;2.30;;;20.80;99.90;;;;;;5027075;28;20299;-36
2022/06/11 03:17:11;;;;;;;4.50;2.17;;;20.80;99.90;;;;;;5017837;28;20638;-36
2022/06/11 03:19:39;;;;;;;5.22;2.50;;;20.80;99.90;;;;;;5027456;28;20213;-36
2022/06/11 03:22:07;;;;;;;3.63;2.30;;;20.80;99.90;;;;;;5028277;28;20797;-37
2022/06/11 03:24:39;;;;;;;4.30;2.55;;;20.80;99.90;;;;;;5028207;28;20205;-36
2022/06/11 03:27:07;;;;;;;4.05;2.30;;;20.80;99.90;;;;;;5026498;28;20209;-36
2022/06/11 03:29:37;;;;;;;5.03;2.55;;;20.80;99.90;;;;;;5058669;28;20200;-36
2022/06/11 03:32:04;;;;;;;5.07;2.30;;;20.80;99.90;;;;;;5028434;28;20232;-52
2022/06/11 03:34:32;;;;;;;4.22;2.20;;;20.80;99.90;;;;;;5027787;28;20296;-51
2022/06/11 03:36:59;;;;;;;3.33;2.08;;;20.80;99.90;;;;;;5059719;28;20201;-51
2022/06/11 03:39:29;;;;;;;5.38;2.60;;;20.70;99.90;;;;;;5028105;28;20213;-51
2022/06/11 03:41:57;;;;;;;4.47;2.50;;;20.70;99.90;;;;;;5026836;28;20231;-53
2022/06/11 03:44:29;;;;;;;3.90;2.55;;;20.80;99.90;;;;;;5030586;28;20208;-51
2022/06/11 03:46:56;;;;;;;4.18;2.35;;;20.80;99.90;;;;;;5031991;28;20205;-52
2022/06/11 03:49:25;;;;;;;2.88;1.98;;;20.80;99.90;;;;;;5031877;28;20237;-52
2022/06/11 03:51:54;;;;;;;5.20;2.42;;;20.70;99.90;;;;;;5031582;28;20203;-52
2022/06/11 03:54:22;;;;;;;7.20;2.47;;;20.80;99.90;;;;;;5026427;28;20251;-52
2022/06/11 03:56:50;;;;;;;4.90;2.25;;;20.70;99.90;;;;;;5011434;28;20237;-53
2022/06/11 03:59:18;;;;;;;3.20;2.20;;;20.80;99.90;;;;;;5026024;28;20654;-52
2022/06/11 04:01:47;;;;;;;3.97;2.28;;;20.70;99.90;;;;;;5016328;28;20204;-52
2022/06/11 04:04:16;;;;;;;5.20;2.30;;;20.70;99.90;;;;;;5011572;28;20248;-53
2022/06/11 04:06:48;;;;;;;4.97;2.20;;;20.80;99.90;;;;;;5031279;28;20201;-53
2022/06/11 04:09:22;;;;;;;2.75;2.13;;;20.80;99.90;;;;;;5031231;28;20208;-53
2022/06/11 04:11:52;;;;;;;6.93;2.53;;;20.80;99.90;;;;;;5031087;28;20312;-52
2022/06/11 04:14:19;;;;;;;5.07;2.42;;;20.80;99.90;;;;;;5030616;28;20197;-52
2022/06/11 04:16:54;;;;;;;4.05;2.40;;;20.80;99.90;;;;;;5031128;28;20212;-53
2022/06/11 04:19:27;;;;;;;3.40;2.30;;;20.80;99.90;;;;;;5030902;28;20235;-52
2022/06/11 04:22:03;;;;;;;3.70;2.22;;;20.80;99.90;;;;;;5030811;28;20204;-52
2022/06/11 04:24:32;;;;;;;3.22;2.25;;;20.80;99.90;;;;;;5011027;28;20197;-53
2022/06/11 04:27:03;;;;;;;4.57;2.40;;;20.80;99.90;;;;;;5011182;28;20210;-52
2022/06/11 04:29:36;;;;;;;2.92;2.35;;;20.80;99.90;;;;;;5010667;28;20553;-52
2022/06/11 04:32:08;;;;;;;4.18;2.30;;;20.80;99.90;;;;;;5011216;28;20572;-52
2022/06/11 04:34:36;;;;;;;5.00;2.20;;;20.80;99.90;;;;;;5041682;28;20188;-52
2022/06/11 04:37:06;;;;;;;2.80;2.10;;;20.80;99.90;;;;;;5030967;28;20217;-52
2022/06/11 04:39:33;;;;;;;3.95;2.30;;;20.80;99.90;;;;;;5030683;28;20614;-50
2022/06/11 04:42:01;;;;;;;2.97;2.08;;;20.80;99.90;;;;;;5030656;28;20209;-52
2022/06/11 04:44:28;;;;;;;3.78;2.10;;;20.90;99.90;;;;;;5030742;28;20733;-51
2022/06/11 04:46:56;;;;;;;2.80;2.28;;;20.90;99.90;;;;;;5030856;28;20575;-52
2022/06/11 04:49:23;;;;;;;4.68;2.17;;;20.90;99.90;;;;;;5030066;28;20682;-52
2022/06/11 04:51:53;;;;;;;2.92;2.25;;;20.90;99.90;;;;;;5029515;28;20678;-52
2022/06/11 04:54:22;;;;;;;3.60;2.20;;;20.90;99.90;;;;;;5029627;28;20292;-52
2022/06/11 04:56:52;;;;;;;4.07;2.08;;;21.00;99.90;;;;;;5029693;28;20248;-51
2022/06/11 04:59:19;;;;;;;4.38;2.40;;;21.00;99.90;;;;;;5057375;28;20221;-52
2022/06/11 05:01:47;;;;;;;2.95;2.10;;;21.00;99.90;;;;;;5019839;28;20223;-52
2022/06/11 05:04:15;;;;;;;4.18;2.50;;;21.00;99.90;;;;;;5048470;28;20197;-51
2022/06/11 05:06:47;;;;;;;2.40;2.10;;;21.00;99.90;;;;;;5022696;28;20201;-52
2022/06/11 05:09:20;;;;;;;4.45;2.13;;;21.10;99.90;;;;;;5023122;28;20259;-52
2022/06/11 05:11:53;;;;;;;3.88;2.10;;;21.10;99.90;;;;;;5029206;28;20216;-52
2022/06/11 05:14:23;;;;;;;3.97;2.15;;;21.10;99.90;;;;;;5028715;28;20204;-52
2022/06/11 05:16:50;;;;;;;2.15;1.73;;;21.20;99.90;;;;;;5028951;28;20294;-52
2022/06/11 05:19:20;;;;;;;3.45;1.70;;;21.20;99.90;;;;;;5027808;28;20256;-51
2022/06/11 05:21:48;;;;;;;4.38;2.10;;;21.30;99.90;;;;;;5028387;28;20267;-52
2022/06/11 05:24:22;;;;;;;5.25;2.20;;;21.30;99.90;;;;;;5027825;28;20228;-52
2022/06/11 05:27:06;;;;;;;3.92;1.98;;;21.30;99.90;;;;;;5026540;28;20209;-52
2022/06/11 05:29:41;;;;;;;3.28;1.52;;;21.40;99.90;;;;;;5028267;28;20204;-52
2022/06/11 05:32:08;;;;;;;4.70;2.10;;;21.50;99.90;;;;;;5028474;28;20235;-52
2022/06/11 05:34:36;;;;;;;3.33;1.52;;;21.50;99.90;;;;;;5029302;28;20301;-52
2022/06/11 05:37:03;;;;;;;3.20;1.58;;;21.60;99.90;;;;;;5028889;28;20208;-52
2022/06/11 05:39:41;;;;;;;3.60;1.50;;;21.60;99.90;;;;;;5028448;28;20663;-51
2022/06/11 05:42:16;;;;;;;7.68;2.13;;;21.70;99.90;;;;;;5027563;28;20262;-51
2022/06/11 05:44:48;;;;;;;4.68;1.60;;;21.70;99.90;;;;;;5026294;28;20274;-51
2022/06/11 05:47:22;;;;;;;4.68;1.83;;;21.70;99.90;;;;;;5028240;28;20200;-51
2022/06/11 05:49:55;;;;;;;3.65;1.40;;;21.70;99.90;;;;;;5028372;28;20212;-52
2022/06/11 05:52:26;;;;;;;2.58;1.38;;;21.60;99.90;;;;;;5029136;28;20638;-52
2022/06/11 05:54:55;;;;;;;6.93;1.70;;;21.60;99.90;;;;;;5028357;28;20278;-53
2022/06/11 05:57:27;;;;;;;4.40;1.50;;;21.60;99.90;;;;;;5028603;28;20658;-52
2022/06/11 06:00:03;;;;;;;3.97;1.65;;;21.60;99.90;;;;;;5028470;28;20216;-52
2022/06/11 06:02:30;;;;;;;5.65;1.45;;;21.60;99.90;;;;;;5022520;28;20230;-52
2022/06/11 06:04:58;;;;;;;5.13;1.50;;;21.60;99.90;;;;;;5020766;28;20200;-53
2022/06/11 06:07:27;;;;;;;5.85;1.85;;;21.60;99.90;;;;;;5017519;28;20212;-52
2022/06/11 06:09:55;;;;;;;6.68;1.70;;;21.60;99.90;;;;;;5023256;28;20254;-52
2022/06/11 06:12:22;;;;;;;6.70;1.67;;;21.60;99.90;;;;;;5030632;28;20300;-53
2022/06/11 06:15:01;;;;;;;6.47;1.88;;;21.50;99.90;;;;;;5023863;28;20344;-53
2022/06/11 06:17:28;;;;;;;5.40;1.60;;;21.50;99.90;;;;;;5037792;28;20201;-52
2022/06/11 06:20:03;;;;;;;4.03;1.60;;;21.50;99.90;;;;;;5023484;28;20713;-52
2022/06/11 06:22:31;;;;;;;7.63;1.95;;;21.50;99.90;;;;;;5027421;28;20205;-52
2022/06/11 06:25:00;;;;;;;7.18;1.80;;;21.50;99.90;;;;;;5028105;28;20628;-51
2022/06/11 06:27:30;;;;;;;6.05;1.70;;;21.50;99.90;;;;;;5027043;28;20263;-53
2022/06/11 06:29:58;;;;;;;11.23;2.25;;;21.60;99.90;;;;;;5025884;28;20298;-52
2022/06/11 06:32:28;;;;;;;9.50;2.45;;;21.50;99.90;;;;;;5026722;28;20291;-53
2022/06/11 06:34:55;;;;;;;8.15;2.00;;;21.50;99.90;;;;;;5024352;28;20279;-54
2022/06/11 06:37:23;;;;;;;7.35;1.92;;;21.50;99.90;;;;;;5024582;28;20579;-53
2022/06/11 06:39:50;;;;;;;9.00;2.13;;;21.40;99.90;;;;;;5057988;28;20217;-37
2022/06/11 06:42:18;;;;;;;8.15;2.03;;;21.40;99.90;;;;;;5024090;28;20229;-37
2022/06/11 06:44:47;;;;;;;7.07;1.92;;;21.40;99.90;;;;;;5056062;28;20218;-37
2022/06/11 06:47:17;;;;;;;7.85;1.77;;;21.40;99.90;;;;;;5025668;28;20675;-37
2022/06/11 06:49:44;;;;;;;4.93;1.65;;;21.30;99.90;;;;;;5024770;28;20243;-37
2022/06/11 06:52:14;;;;;;;5.28;1.85;;;21.30;99.90;;;;;;5020492;28;20240;-37
2022/06/11 06:54:43;;;;;;;5.20;1.83;;;21.40;99.90;;;;;;5035087;28;20692;-37
2022/06/11 06:57:10;;;;;;;7.60;1.73;;;21.40;99.90;;;;;;5047467;28;20744;-37
2022/06/11 06:59:37;;;;;;;5.88;1.90;;;21.50;99.90;;;;;;5029179;28;20775;-37
2022/06/11 07:02:05;;;;;;;6.90;2.00;;;21.50;99.90;;;;;;5025234;28;20210;-37
2022/06/11 07:04:33;;;;;;;5.28;1.40;;;21.50;99.90;;;;;;5004932;28;20209;-37
2022/06/11 07:07:00;;;;;;;5.05;1.60;;;21.60;99.90;;;;;;5036703;28;20228;-37
2022/06/11 07:09:27;;;;;;;9.05;2.03;;;21.60;99.90;;;;;;5026578;28;20213;-37
2022/06/11 07:11:57;;;;;;;6.15;1.83;;;21.60;99.90;;;;;;5025272;28;20197;-37
2022/06/11 07:14:29;;;;;;;7.28;2.13;;;21.60;99.90;;;;;;5024097;28;20687;-37
2022/06/11 07:17:05;;;;;;;5.70;1.80;;;21.60;99.90;;;;;;5027390;28;20620;-37
2022/06/11 07:19:39;;;;;;;7.03;2.03;;;21.60;99.90;;;;;;5026419;28;20406;-37
2022/06/11 07:22:26;;;;;;;5.30;1.60;;;21.50;99.90;;;;;;5025216;28;20331;-37
2022/06/11 07:24:53;;;;;;;8.43;2.13;;;21.50;99.90;;;;;;5029324;28;20292;-37
2022/06/11 07:27:28;;;;;;;8.18;1.90;;;21.50;99.90;;;;;;5031392;28;20217;-37
2022/06/11 07:30:01;;;;;;;6.85;1.83;;;21.60;99.90;;;;;;5029081;28;20212;-37
2022/06/11 07:32:35;;;;;;;3.63;1.70;;;21.60;99.90;;;;;;5030697;28;20589;-37
2022/06/11 07:35:07;;;;;;;5.47;1.70;;;21.60;99.90;;;;;;5062258;28;20265;-37
2022/06/11 07:37:35;;;;;;;7.10;1.92;;;21.60;99.90;;;;;;5031264;28;20219;-37
2022/06/11 07:40:04;;;;;;;9.55;2.03;;;21.70;99.90;;;;;;5027960;28;20228;-37
2022/06/11 07:42:36;;;;;;;5.55;1.55;;;21.70;99.90;;;;;;5028806;28;20279;-37
2022/06/11 07:45:04;;;;;;;6.30;2.03;;;21.70;99.90;;;;;;5030088;28;20192;-38
2022/06/11 07:50:30;;;;;;;5.40;1.77;;;21.70;99.90;;;;;;5027894;28;20213;-37
2022/06/11 07:52:59;;;;;;;9.95;2.15;;;21.70;99.90;;;;;;5030194;28;20205;-37
2022/06/11 07:55:32;;;;;;;6.20;2.22;;;21.80;99.90;;;;;;5045964;28;20773;-38
2022/06/11 07:58:04;;;;;;;7.45;2.15;;;21.80;99.90;;;;;;5026785;28;20229;-37
2022/06/11 08:00:36;;;;;;;11.10;2.42;;;21.80;99.90;;;;;;5032343;28;20197;-37
2022/06/11 08:03:09;;;;;;;10.90;2.17;;;21.90;99.90;;;;;;5027973;28;20629;-37
2022/06/11 08:05:41;;;;;;;5.57;1.92;;;21.90;99.90;;;;;;5023848;28;20208;-37
2022/06/11 08:08:09;;;;;;;6.90;2.25;;;21.90;99.90;;;;;;5028315;28;20240;-37
2022/06/11 08:10:41;;;;;;;10.20;2.40;;;22.00;99.90;;;;;;5031190;28;20655;-37
2022/06/11 08:13:12;;;;;;;7.55;2.00;;;22.00;99.90;;;;;;5031882;28;20208;-37
2022/06/11 08:15:44;;;;;;;8.02;2.00;;;22.00;99.90;;;;;;5043135;28;20219;-37
2022/06/11 08:18:12;;;;;;;9.48;2.40;;;22.00;99.90;;;;;;5031062;28;20656;-53
2022/06/11 08:20:40;;;;;;;8.40;2.10;;;22.10;99.90;;;;;;5030971;28;20258;-53
2022/06/11 08:23:10;;;;;;;7.85;2.00;;;22.10;99.90;;;;;;5030819;28;20208;-53
2022/06/11 08:25:40;;;;;;;4.47;1.98;;;22.10;99.90;;;;;;5029041;28;20266;-53
2022/06/11 08:28:11;;;;;;;8.35;2.13;;;22.20;99.90;;;;;;5026846;28;20201;-52
2022/06/11 08:30:39;;;;;;;9.27;2.63;;;22.20;99.90;;;;;;5029715;28;20201;-52
2022/06/11 08:33:26;;;;;;;6.40;2.28;;;22.30;99.90;;;;;;5029208;28;20312;-53
2022/06/11 08:35:53;;;;;;;7.72;2.25;;;22.40;99.90;;;;;;5026884;28;20237;-53
2022/06/11 08:38:20;;;;;;;9.13;2.53;;;22.50;99.90;;;;;;5026043;28;20197;-54
2022/06/11 08:40:55;;;;;;;6.57;2.13;;;22.60;99.90;;;;;;5028645;28;20237;-52
2022/06/11 08:43:52;;;;;;;7.07;2.33;;;22.60;99.90;;;;;;5029655;28;20622;-53
2022/06/11 08:46:28;;;;;;;9.60;2.47;;;22.80;99.90;;;;;;5031120;28;20684;-53
2022/06/11 08:49:05;;;;;;;9.43;2.50;;;22.80;99.90;;;;;;5032253;28;20642;-53
2022/06/11 08:51:44;;;;;;;9.05;2.40;;;23.00;99.90;;;;;;5026478;28;20216;-51
2022/06/11 08:54:36;;;;;;;11.70;2.70;;;23.00;99.90;;;;;;5024451;28;20203;-53
2022/06/11 08:57:59;;;;;;;10.38;2.45;;;23.10;99.90;;;;;;5028643;28;20342;-52
2022/06/11 09:00:39;;;;;;;11.13;2.80;;;23.20;99.90;;;;;;5018638;28;20726;-53
2022/06/11 09:03:30;;;;;;;8.32;2.20;;;23.20;99.90;;;;;;5047383;28;20220;-53
2022/06/11 09:06:20;;;;;;;9.48;2.80;;;23.30;99.90;;;;;;5017008;28;20687;-53
2022/06/11 09:09:06;;;;;;;9.45;2.60;;;23.40;99.90;;;;;;5019005;28;20275;-52
2022/06/11 09:12:11;;;;;;;9.52;2.67;;;23.50;99.90;;;;;;5028668;28;20204;-54
2022/06/11 09:15:22;;;;;;;10.35;2.47;;;23.60;99.90;;;;;;5022502;28;20236;-53
2022/06/11 09:18:04;;;;;;;10.35;2.25;;;23.60;99.70;;;;;;5020325;28;20216;-52
2022/06/11 09:20:46;;;;;;;9.32;2.08;;;23.50;98.90;;;;;;5027405;28;20350;-53
2022/06/11 09:23:25;;;;;;;6.00;2.10;;;23.50;99.70;;;;;;5026057;28;20299;-53
2022/06/11 09:26:12;;;;;;;7.20;1.92;;;23.40;99.90;;;;;;5027401;28;20251;-52
2022/06/11 09:28:49;;;;;;;10.13;2.47;;;23.30;99.90;;;;;;5027338;28;20739;-53
2022/06/11 09:31:37;;;;;;;5.55;1.75;;;23.30;99.90;;;;;;5024475;28;20205;-52
2022/06/11 09:34:21;;;;;;;11.18;2.63;;;23.20;99.90;;;;;;5029661;28;20579;-52
2022/06/11 09:37:15;;;;;;;7.65;2.17;;;23.20;99.60;;;;;;5026343;28;20287;-53
2022/06/11 09:40:07;;;;;;;5.50;2.13;;;23.20;99.90;;;;;;5025764;28;20224;-54
2022/06/11 09:43:10;;;;;;;7.25;2.30;;;23.20;99.80;;;;;;5024520;28;20220;-53
2022/06/11 09:45:52;;;;;;;7.65;2.30;;;23.20;99.50;;;;;;5025183;28;20266;-52
2022/06/11 09:48:33;;;;;;;7.53;2.00;;;23.20;99.50;;;;;;5024582;28;20204;-54
2022/06/11 09:51:04;;;;;;;7.40;2.17;;;23.20;99.50;;;;;;5025147;28;20213;-52
2022/06/11 09:53:58;;;;;;;9.98;2.35;;;23.10;99.60;;;;;;5024210;28;20404;-54
2022/06/11 09:56:47;;;;;;;12.05;2.22;;;23.10;99.50;;;;;;5013032;28;21392;-56
2022/06/11 09:59:36;;;;;;;6.15;1.85;;;23.10;99.70;;;;;;5022550;28;20749;-53
2022/06/11 10:02:07;;;;;;;9.27;2.58;;;23.00;99.60;;;;;;5019269;28;20267;-52
2022/06/11 10:04:39;;;;;;;12.13;3.03;;;23.00;99.50;;;;;;5026830;28;20208;-54
2022/06/11 10:07:17;;;;;;;10.73;2.00;;;23.00;99.70;;;;;;5016543;28;20208;-52
2022/06/11 10:09:54;;;;;;;8.15;1.90;;;23.10;99.80;;;;;;5023065;28;20258;-53
2022/06/11 10:12:33;;;;;;;9.70;2.40;;;23.10;99.80;;;;;;5027478;28;20647;-53
2022/06/11 10:15:25;;;;;;;7.10;2.22;;;23.10;99.80;;;;;;5024314;28;20315;-52
2022/06/11 10:17:55;;;;;;;8.43;1.95;;;23.10;99.80;;;;;;5021509;28;20558;-52
2022/06/11 10:20:25;;;;;;;5.95;1.85;;;23.10;99.60;;;;;;5021532;28;20319;-53
2022/06/11 10:23:26;;;;;;;5.82;1.80;;;23.10;99.80;;;;;;5025490;28;20197;-53
2022/06/11 10:26:26;;;;;;;5.70;1.77;;;23.20;99.90;;;;;;5025997;28;20215;-52
2022/06/11 10:29:29;;;;;;;6.70;2.15;;;23.20;99.90;;;;;;5016893;28;20569;-52
2022/06/11 10:32:07;;;;;;;6.50;2.10;;;23.20;99.90;;;;;;5024983;28;20295;-53
2022/06/11 10:34:39;;;;;;;8.85;2.45;;;23.30;99.90;;;;;;5025451;28;20212;-53
2022/06/11 10:37:22;;;;;;;7.15;1.80;;;23.30;99.70;;;;;;5026711;28;20220;-53
2022/06/11 10:40:12;;;;;;;6.53;1.65;;;23.30;99.90;;;;;;5016031;28;20311;-53
2022/06/11 10:42:48;;;;;;;6.97;1.90;;;23.40;99.60;;;;;;5024518;28;20205;-52
2022/06/11 10:45:20;;;;;;;6.03;1.70;;;23.40;99.80;;;;;;5026300;28;20258;-51
2022/06/11 10:47:54;;;;;;;8.52;2.10;;;23.40;99.90;;;;;;5021171;28;20200;-53
2022/06/11 10:50:28;;;;;;;6.50;1.98;;;23.50;99.70;;;;;;5024103;28;20205;-53
2022/06/11 10:53:26;;;;;;;6.55;1.95;;;23.50;99.90;;;;;;5023006;28;20757;-51
2022/06/11 10:56:09;;;;;;;9.95;2.67;;;23.50;99.90;;;;;;5021898;28;20233;-54
2022/06/11 10:58:44;;;;;;;3.70;1.20;;;23.60;99.10;;;;;;5023608;28;20216;-53
2022/06/11 11:01:23;;;;;;;7.43;1.83;;;23.60;98.90;;;;;;5030888;28;20227;-53
2022/06/11 11:04:14;;;;;;;5.47;1.52;;;23.70;99.30;;;;;;5019960;28;21674;-52
2022/06/11 11:06:42;;;;;;;4.75;1.42;;;23.70;99.40;;;;;;5019873;28;20258;-54
2022/06/11 11:09:23;;;;;;;8.10;2.08;;;23.70;99.30;;;;;;5027019;28;20200;-52
2022/06/11 11:11:56;;;;;;;7.28;1.85;;;23.70;99.10;;;;;;5026218;28;20235;-53
2022/06/11 11:14:41;;;;;;;8.57;2.53;;;23.70;98.30;;;;;;5029549;28;20213;-53
2022/06/11 11:17:17;;;;;;;3.45;1.30;;;23.70;99.20;;;;;;5019163;28;20616;-53
2022/06/11 11:20:29;;;;;;;4.20;1.42;;;23.70;98.60;;;;;;5038844;28;20643;-37
2022/06/11 11:22:50;;;;;;;6.75;1.90;;;23.70;98.70;;;;;;5039449;28;20305;-37
2022/06/11 11:25:23;;;;;;;6.63;1.75;;;23.70;98.50;;;;;;5007263;28;20251;-38
2022/06/11 11:27:52;;;;;;;5.72;1.55;;;23.70;98.70;;;;;;5020921;28;20664;-37
2022/06/11 11:30:31;;;;;;;5.40;1.80;;;23.80;99.00;;;;;;5036524;28;20224;-37
2022/06/11 11:33:20;;;;;;;6.82;1.75;;;23.80;99.00;;;;;;5032709;28;20679;-37
2022/06/11 11:36:01;;;;;;;7.75;2.05;;;23.80;98.90;;;;;;5024844;28;20223;-37
2022/06/11 11:38:33;;;;;;;9.00;2.30;;;23.80;98.70;;;;;;5026166;28;20215;-37
2022/06/11 11:41:02;;;;;;;5.90;1.73;;;23.90;98.60;;;;;;5025046;28;20304;-42
2022/06/11 11:43:41;;;;;;;3.75;1.75;;;23.90;99.10;;;;;;5024868;28;20478;-37
2022/06/11 11:46:23;;;;;;;5.25;1.83;;;24.00;99.00;;;;;;5032331;28;20201;-37
2022/06/11 11:48:58;;;;;;;5.88;1.40;;;24.00;99.00;;;;;;5025941;28;20224;-37
2022/06/11 11:51:34;;;;;;;3.92;1.40;;;24.10;98.50;;;;;;5019949;28;20738;-37
2022/06/11 11:54:06;;;;;;;5.38;1.40;;;24.10;99.00;;;;;;5024006;28;20351;-37
2022/06/11 11:57:06;;;;;;;7.50;2.25;;;24.20;98.90;;;;;;5026014;28;20715;-37
2022/06/11 11:59:47;;;;;;;5.78;1.50;;;24.30;98.80;;;;;;5011685;28;20239;-37
2022/06/11 12:02:24;;;;;;;4.07;1.13;;;24.40;98.90;;;;;;5023758;28;20209;-38
2022/06/11 12:04:58;;;;;;;4.93;1.83;;;24.50;98.70;;;;;;5028553;28;20856;-37
2022/06/11 12:07:38;;;;;;;4.20;1.80;;;24.60;98.70;;;;;;5018799;28;20217;-38
2022/06/11 12:10:27;;;;;;;7.82;2.45;;;24.70;99.20;;;;;;5025501;28;20309;-37
2022/06/11 12:12:56;;;;;;;6.00;2.10;;;24.70;99.30;;;;;;5021526;28;20205;-37
2022/06/11 12:15:30;;;;;;;8.07;2.00;;;24.80;99.10;;;;;;5027798;28;20332;-37
2022/06/11 12:18:03;;;;;;;8.10;1.80;;;25.00;99.80;;;;;;5029614;28;20244;-37
2022/06/11 12:20:54;;;;;;;5.90;1.63;;;25.00;99.50;;;;;;5036110;28;20311;-37
2022/06/11 12:23:27;;;;;;;6.78;1.63;;;25.20;99.30;;;;;;5021394;28;20256;-52
2022/06/11 12:26:18;;;;;;;5.80;2.10;;;25.20;99.60;;;;;;5035249;28;20193;-51
2022/06/11 12:28:58;;;;;;;6.00;1.90;;;25.30;99.60;;;;;;5027996;28;20927;-51
2022/06/11 12:31:30;;;;;;;5.75;1.67;;;25.40;99.80;;;;;;5018377;28;20292;-52
2022/06/11 12:33:58;;;;;;;4.47;1.50;;;25.50;99.60;;;;;;5029203;28;20215;-36
2022/06/11 12:36:46;;;;;;;5.20;1.50;;;25.60;99.80;;;;;;5029807;28;20737;-36
2022/06/11 12:39:46;;;;;;;4.35;1.40;;;25.70;99.50;;;;;;5030322;28;20278;-37
2022/06/11 12:42:26;;;;;;;7.70;1.65;;;25.70;99.70;;;;;;5028402;28;20200;-36
2022/06/11 12:45:21;;;;;;;7.28;1.60;;;25.70;99.10;;;;;;5022290;28;20259;-36
2022/06/11 12:47:54;;;;;;;3.85;1.30;;;25.70;98.30;;;;;;5021652;28;20197;-38
2022/06/11 12:51:04;;;;;;;5.82;1.40;;;25.80;99.00;;;;;;5032264;28;20212;-37
2022/06/11 12:53:43;;;;;;;7.10;1.70;;;25.80;99.20;;;;;;5030701;28;20205;-36
2022/06/11 12:56:34;;;;;;;5.60;1.45;;;25.80;99.30;;;;;;5030427;28;20251;-37
2022/06/11 12:59:19;;;;;;;4.78;1.08;;;25.90;98.30;;;;;;5030246;28;20622;-37
2022/06/11 13:02:11;;;;;;;7.20;1.50;;;25.90;97.80;;;;;;5029346;28;20201;-37
2022/06/11 13:04:52;;;;;;;3.10;1.30;;;25.90;98.40;;;;;;5031368;28;20259;-36
2022/06/11 13:07:55;;;;;;;10.68;1.70;;;25.90;98.80;;;;;;5010869;28;20697;-37
2022/06/11 13:10:25;;;;;;;3.28;1.02;;;25.90;98.90;;;;;;5028147;28;20581;-36
2022/06/11 13:13:16;;;;;;;2.95;1.30;;;25.90;98.90;;;;;;5029243;28;20299;-37
2022/06/11 13:15:51;;;;;;;4.57;1.50;;;26.00;99.10;;;;;;5008562;28;20224;-36
2022/06/11 13:18:30;;;;;;;5.97;1.85;;;26.00;98.70;;;;;;5039827;28;20216;-36
2022/06/11 13:21:30;;;;;;;4.55;1.40;;;26.10;98.80;;;;;;5049459;28;20326;-36
2022/06/11 13:24:28;;;;;;;5.90;1.48;;;26.10;99.00;;;;;;5029124;28;20698;-38
2022/06/11 13:27:10;;;;;;;3.95;1.40;;;26.20;98.80;;;;;;5027994;28;20216;-53
2022/06/11 13:29:59;;;;;;;5.75;1.60;;;26.20;98.60;;;;;;5010915;28;20193;-53
2022/06/11 13:33:13;;;;;;;4.55;1.38;;;26.20;99.10;;;;;;5029158;28;20205;-52
2022/06/11 13:35:52;;;;;;;5.03;1.23;;;26.20;99.20;;;;;;4990424;28;20198;-53